Time;durP1;ratioP1;P1;durP2;ratioP2;P2;SDS_P1;SDS_P2;PMS_P1;PMS_P2;Temp;Humidity;BMP_temperature;BMP_pressure;BME280_temperature;BME280_humidity;BME280_pressure;Samples;Min_cycle;Max_cycle;Signal;HPM_P1;HPM_P2
2022/12/28 00:00:10;;;;;;;28.10;13.28;;;20.70;88.50;;;;;;1907408;73;21531;-69
2022/12/28 00:02:41;;;;;;;22.60;13.40;;;20.70;88.70;;;;;;1908949;73;21123;-71
2022/12/28 00:05:20;;;;;;;22.85;12.20;;;20.70;89.10;;;;;;1885783;74;21625;-71
2022/12/28 00:07:51;;;;;;;22.60;12.47;;;20.70;89.20;;;;;;1899092;74;21423;-70
2022/12/28 00:10:22;;;;;;;24.60;12.55;;;20.70;89.70;;;;;;1889111;74;21123;-69
2022/12/28 00:12:55;;;;;;;23.67;12.05;;;20.70;89.90;;;;;;1896235;74;21083;-70
2022/12/28 00:15:27;;;;;;;20.72;12.50;;;20.70;89.90;;;;;;1882638;75;21130;-71
2022/12/28 00:17:58;;;;;;;19.80;10.75;;;20.70;90.10;;;;;;1911490;73;21709;-69
2022/12/28 00:20:49;;;;;;;31.93;11.68;;;20.70;90.20;;;;;;1922386;73;21186;-69
2022/12/28 00:23:20;;;;;;;22.25;11.73;;;20.70;90.20;;;;;;1885546;75;21139;-70
2022/12/28 00:25:52;;;;;;;22.20;13.13;;;20.80;90.10;;;;;;1912845;74;21623;-69
2022/12/28 00:28:22;;;;;;;19.12;10.90;;;20.80;90.20;;;;;;1911909;74;21092;-69
2022/12/28 00:30:54;;;;;;;19.82;10.98;;;20.80;90.10;;;;;;1852943;76;21217;-68
2022/12/28 00:33:25;;;;;;;18.80;10.35;;;20.80;90.10;;;;;;1865655;75;21197;-70
2022/12/28 00:36:01;;;;;;;16.45;10.43;;;20.80;90.20;;;;;;1866405;75;21139;-70
2022/12/28 00:38:32;;;;;;;31.62;11.38;;;20.80;90.20;;;;;;1862914;75;21072;-71
2022/12/28 00:41:03;;;;;;;18.67;10.40;;;20.90;90.10;;;;;;1854425;75;21181;-70
2022/12/28 00:43:34;;;;;;;22.93;11.85;;;20.90;90.00;;;;;;1862575;75;21143;-70
2022/12/28 00:46:05;;;;;;;26.30;14.80;;;21.00;90.00;;;;;;1836732;76;21121;-70
2022/12/28 00:48:36;;;;;;;22.17;14.33;;;21.00;90.00;;;;;;1831291;78;21130;-70
2022/12/28 00:51:10;;;;;;;21.93;13.85;;;21.10;89.60;;;;;;1849127;76;21196;-71
2022/12/28 00:53:41;;;;;;;24.15;14.53;;;21.20;89.60;;;;;;1828315;76;21177;-70
2022/12/28 00:56:15;;;;;;;26.75;16.05;;;21.20;89.60;;;;;;1908856;74;21204;-70
2022/12/28 00:58:47;;;;;;;24.95;15.40;;;21.30;89.50;;;;;;1866430;75;21598;-71
2022/12/28 01:01:21;;;;;;;25.27;15.38;;;21.30;89.50;;;;;;1877054;75;21163;-71
2022/12/28 01:03:54;;;;;;;29.23;16.00;;;21.30;89.40;;;;;;1883011;75;21622;-71
2022/12/28 01:06:25;;;;;;;24.23;13.08;;;21.40;89.20;;;;;;1886399;75;21076;-71
2022/12/28 01:08:56;;;;;;;21.52;11.63;;;21.30;89.30;;;;;;1905793;75;21236;-71
2022/12/28 01:11:29;;;;;;;21.87;11.18;;;21.40;88.90;;;;;;1868935;75;21136;-70
2022/12/28 01:14:03;;;;;;;21.23;11.15;;;21.40;88.70;;;;;;1881266;75;21137;-71
2022/12/28 01:16:36;;;;;;;21.27;11.45;;;21.50;88.40;;;;;;1861337;75;21187;-73
2022/12/28 01:19:07;;;;;;;17.27;10.35;;;21.50;88.40;;;;;;1866818;75;21693;-73
2022/12/28 01:21:38;;;;;;;17.90;9.13;;;21.50;88.30;;;;;;1861094;75;21158;-73
2022/12/28 01:24:11;;;;;;;20.15;9.63;;;21.50;87.90;;;;;;1865463;75;21174;-70
2022/12/28 01:26:41;;;;;;;20.52;10.23;;;21.50;87.90;;;;;;1879556;75;21202;-71
2022/12/28 01:29:13;;;;;;;15.55;9.78;;;21.60;88.00;;;;;;1840824;76;21223;-70
2022/12/28 01:31:44;;;;;;;19.50;10.40;;;21.60;88.00;;;;;;1859371;75;21090;-71
2022/12/28 01:34:15;;;;;;;19.45;10.82;;;21.70;87.80;;;;;;1865230;75;21248;-71
2022/12/28 01:36:47;;;;;;;18.37;9.65;;;21.70;87.40;;;;;;1881368;74;21122;-70
2022/12/28 01:39:20;;;;;;;19.10;9.60;;;21.80;87.00;;;;;;1878250;75;21661;-71
2022/12/28 01:41:51;;;;;;;12.25;7.20;;;21.90;86.50;;;;;;1905499;73;21115;-71
2022/12/28 01:44:27;;;;;;;9.48;6.37;;;22.00;83.90;;;;;;1900097;73;21217;-71
2022/12/28 01:47:07;;;;;;;11.73;6.33;;;22.10;80.70;;;;;;1896679;73;21190;-71
2022/12/28 01:50:00;;;;;;;12.07;6.67;;;22.30;80.10;;;;;;1909291;73;21110;-71
2022/12/28 01:52:35;;;;;;;12.53;6.70;;;22.40;78.70;;;;;;1907272;73;21189;-70
2022/12/28 01:55:17;;;;;;;15.78;6.25;;;22.60;77.90;;;;;;1902293;73;21668;-71
2022/12/28 01:57:58;;;;;;;11.73;6.33;;;22.60;76.70;;;;;;1893744;73;21094;-71
2022/12/28 02:00:29;;;;;;;9.80;5.87;;;22.70;76.80;;;;;;1911958;73;21631;-72
2022/12/28 02:03:11;;;;;;;11.48;6.40;;;22.80;76.10;;;;;;1835108;77;21198;-72
2022/12/28 02:05:45;;;;;;;13.72;6.50;;;22.90;75.70;;;;;;1906940;73;21166;-72
2022/12/28 02:08:21;;;;;;;10.88;6.20;;;23.00;75.80;;;;;;1896450;73;21151;-70
2022/12/28 02:10:53;;;;;;;14.33;7.17;;;23.10;75.60;;;;;;1906507;73;21099;-72
2022/12/28 02:13:26;;;;;;;12.33;6.90;;;23.10;74.50;;;;;;1904057;73;21102;-71
2022/12/28 02:15:56;;;;;;;11.33;7.15;;;23.10;74.10;;;;;;1907320;73;21122;-80
2022/12/28 02:18:28;;;;;;;16.52;7.35;;;23.20;74.30;;;;;;1905075;73;21149;-79
2022/12/28 02:21:30;;;;;;;17.37;7.22;;;23.20;74.40;;;;;;1883432;74;21151;-79
2022/12/28 02:24:15;;;;;;;17.65;7.75;;;23.20;74.40;;;;;;1886564;75;21163;-78
2022/12/28 02:27:14;;;;;;;14.98;8.38;;;23.20;74.40;;;;;;1915458;73;21154;-76
2022/12/28 02:29:55;;;;;;;14.13;7.87;;;23.20;74.60;;;;;;1918992;74;21204;-76
2022/12/28 02:32:50;;;;;;;13.50;8.25;;;23.30;74.70;;;;;;1917711;73;21201;-77
2022/12/28 02:35:46;;;;;;;14.00;8.33;;;23.30;75.20;;;;;;1913170;73;21154;-78
2022/12/28 02:38:22;;;;;;;14.53;8.58;;;23.30;75.00;;;;;;1911714;73;21068;-77
2022/12/28 02:40:56;;;;;;;13.60;8.68;;;23.40;75.30;;;;;;1918399;73;21607;-78
2022/12/28 02:43:27;;;;;;;16.45;8.78;;;23.40;75.40;;;;;;1916332;73;21125;-79
2022/12/28 02:51:41;;;;;;;18.87;9.55;;;23.50;75.30;;;;;;1917311;73;21153;-79
2022/12/28 02:57:52;;;;;;;19.67;10.70;;;23.60;75.60;;;;;;1917176;73;21134;-77
2022/12/28 03:00:27;;;;;;;21.50;9.75;;;23.70;75.40;;;;;;1873374;75;21135;-79
2022/12/28 03:03:22;;;;;;;20.17;9.67;;;23.70;75.10;;;;;;1917561;73;21196;-79
2022/12/28 03:09:01;;;;;;;23.95;9.98;;;23.80;74.90;;;;;;1918746;73;21135;-78
2022/12/28 03:11:46;;;;;;;18.15;9.28;;;23.90;74.70;;;;;;1920355;73;21739;-79
2022/12/28 03:14:36;;;;;;;14.93;8.88;;;23.90;74.20;;;;;;1913658;73;21153;-79
2022/12/28 03:31:37;;;;;;;15.55;9.50;;;24.40;73.50;;;;;;1906156;73;21142;-78
2022/12/28 03:34:08;;;;;;;16.70;9.85;;;24.50;73.30;;;;;;1908907;74;21114;-78
2022/12/28 03:36:45;;;;;;;14.10;8.68;;;24.50;73.60;;;;;;1912562;73;21201;-78
2022/12/28 03:39:30;;;;;;;22.10;9.70;;;24.60;73.20;;;;;;1895487;73;21132;-78
2022/12/28 03:45:00;;;;;;;20.35;9.55;;;24.70;72.50;;;;;;1900210;74;21184;-79
2022/12/28 03:47:33;;;;;;;14.45;9.55;;;24.70;73.00;;;;;;1914747;73;21164;-78
2022/12/28 03:50:06;;;;;;;14.65;9.58;;;24.80;73.10;;;;;;1873984;75;21630;-79
2022/12/28 03:52:38;;;;;;;12.18;8.93;;;24.90;72.90;;;;;;1875624;75;21137;-77
2022/12/28 03:55:10;;;;;;;15.65;9.63;;;25.00;72.50;;;;;;1871808;75;21274;-77
2022/12/28 03:57:42;;;;;;;17.90;9.70;;;25.10;72.20;;;;;;1875052;75;21194;-78
2022/12/28 04:00:13;;;;;;;17.98;9.78;;;25.20;72.00;;;;;;1873856;75;21050;-77
2022/12/28 04:02:44;;;;;;;15.38;9.63;;;25.30;71.80;;;;;;1915779;73;21183;-79
2022/12/28 04:05:16;;;;;;;16.48;9.65;;;25.50;71.10;;;;;;1873095;75;21131;-78
2022/12/28 04:08:05;;;;;;;15.43;10.08;;;25.60;70.60;;;;;;1873342;75;21072;-78
2022/12/28 04:10:35;;;;;;;14.83;9.63;;;25.70;69.80;;;;;;1916234;73;21144;-80
2022/12/28 04:13:07;;;;;;;13.72;9.20;;;25.80;69.90;;;;;;1919052;73;21224;-78
2022/12/28 04:15:39;;;;;;;16.42;9.43;;;25.90;70.20;;;;;;1879515;75;21264;-80
2022/12/28 04:18:10;;;;;;;16.25;9.63;;;26.00;69.30;;;;;;1914721;73;21249;-80
2022/12/28 04:20:42;;;;;;;16.10;9.00;;;26.10;69.00;;;;;;1877447;75;21905;-77
2022/12/28 04:23:14;;;;;;;14.65;9.83;;;26.20;68.30;;;;;;1912706;73;21192;-78
2022/12/28 04:25:47;;;;;;;15.98;9.18;;;;;;;;;;1909037;73;21190;-81
2022/12/28 04:28:18;;;;;;;14.25;8.88;;;26.40;67.90;;;;;;1898885;73;21223;-79
2022/12/28 04:30:49;;;;;;;14.03;8.08;;;26.50;67.40;;;;;;1903081;73;21105;-78
2022/12/28 04:33:21;;;;;;;14.78;8.55;;;26.50;66.90;;;;;;1913417;73;21174;-79
2022/12/28 04:35:52;;;;;;;15.20;8.25;;;26.60;66.30;;;;;;1906526;73;21157;-79
2022/12/28 04:38:23;;;;;;;12.68;7.55;;;26.70;66.00;;;;;;1909068;73;21184;-78
2022/12/28 04:40:55;;;;;;;11.25;7.28;;;26.80;65.40;;;;;;1904259;73;21669;-80
2022/12/28 04:43:26;;;;;;;13.72;7.12;;;26.90;65.90;;;;;;1907535;73;21236;-80
2022/12/28 04:46:00;;;;;;;15.38;7.30;;;27.00;64.80;;;;;;1904851;73;21143;-79
2022/12/28 04:48:32;;;;;;;13.55;6.87;;;27.10;64.50;;;;;;1912167;73;21765;-80
2022/12/28 04:51:12;;;;;;;10.03;6.33;;;27.10;63.10;;;;;;1866782;75;21193;-79
2022/12/28 04:53:43;;;;;;;10.45;6.28;;;27.20;63.90;;;;;;1839074;76;21179;-78
2022/12/28 04:56:15;;;;;;;9.68;6.22;;;27.20;62.90;;;;;;1863920;75;21189;-80
2022/12/28 04:58:47;;;;;;;11.88;6.53;;;27.30;62.80;;;;;;1882223;75;21264;-85
2022/12/28 05:01:19;;;;;;;14.75;7.00;;;27.30;63.10;;;;;;1880629;75;21548;-81
2022/12/28 05:03:54;;;;;;;13.28;7.97;;;27.40;61.80;;;;;;1888792;75;21205;-78
2022/12/28 05:06:28;;;;;;;11.97;7.60;;;27.50;60.20;;;;;;1889350;75;21108;-78
2022/12/28 05:08:59;;;;;;;13.30;7.67;;;27.60;60.40;;;;;;1889418;75;21148;-80
2022/12/28 05:11:31;;;;;;;14.98;7.90;;;27.70;60.30;;;;;;1885955;75;21132;-78
2022/12/28 05:14:02;;;;;;;16.50;7.80;;;27.70;60.20;;;;;;1888714;75;21192;-80
2022/12/28 05:16:33;;;;;;;13.65;7.40;;;27.70;60.60;;;;;;1885122;75;21073;-75
2022/12/28 05:19:04;;;;;;;10.43;6.72;;;27.80;60.50;;;;;;1893692;74;21178;-79
2022/12/28 05:21:35;;;;;;;11.85;7.62;;;27.80;59.20;;;;;;1893896;74;21005;-77
2022/12/28 05:24:06;;;;;;;10.95;7.67;;;27.90;59.30;;;;;;1884268;74;21064;-79
2022/12/28 05:26:38;;;;;;;11.88;7.00;;;28.00;60.10;;;;;;1922881;73;21118;-79
2022/12/28 05:29:09;;;;;;;11.53;7.35;;;28.10;58.40;;;;;;1896072;74;21167;-78
2022/12/28 05:31:40;;;;;;;14.73;8.03;;;28.10;58.30;;;;;;1919319;73;21121;-76
2022/12/28 05:34:11;;;;;;;15.48;7.55;;;28.20;57.10;;;;;;1921022;73;21130;-77
2022/12/28 05:36:47;;;;;;;11.60;7.22;;;28.20;57.40;;;;;;1922082;74;21075;-80
2022/12/28 05:39:19;;;;;;;10.38;7.50;;;28.30;58.30;;;;;;1918812;73;21060;-80
2022/12/28 05:41:50;;;;;;;13.03;7.17;;;28.30;57.10;;;;;;1922461;73;21353;-78
2022/12/28 05:44:21;;;;;;;11.10;7.15;;;28.30;57.50;;;;;;1914512;73;21740;-79
2022/12/28 05:46:53;;;;;;;12.80;7.37;;;28.40;57.90;;;;;;1917500;73;21178;-79
2022/12/28 05:49:25;;;;;;;11.75;6.75;;;28.40;57.20;;;;;;1920640;73;21599;-80
2022/12/28 05:51:57;;;;;;;10.80;6.37;;;28.50;56.80;;;;;;1920822;73;21138;-80
2022/12/28 05:54:28;;;;;;;10.48;6.17;;;28.50;57.90;;;;;;1922946;73;21142;-79
2022/12/28 05:56:59;;;;;;;8.78;5.90;;;28.60;56.90;;;;;;1919673;73;21158;-80
2022/12/28 05:59:31;;;;;;;9.45;5.95;;;28.50;56.90;;;;;;1922882;73;21141;-80
2022/12/28 06:02:02;;;;;;;8.03;5.67;;;28.60;54.70;;;;;;1918935;73;21189;-78
2022/12/28 06:04:35;;;;;;;9.93;5.83;;;28.60;56.50;;;;;;1919761;73;21192;-80
2022/12/28 06:07:06;;;;;;;10.70;5.67;;;28.60;56.30;;;;;;1918494;73;21218;-80
2022/12/28 06:09:38;;;;;;;9.73;6.03;;;28.60;56.10;;;;;;1903635;73;21107;-79
2022/12/28 06:12:12;;;;;;;12.23;6.92;;;28.70;55.10;;;;;;1921964;73;21154;-82
2022/12/28 06:14:45;;;;;;;11.12;6.55;;;28.70;54.50;;;;;;1920262;73;21042;-80
2022/12/28 06:17:19;;;;;;;10.32;7.05;;;28.80;55.10;;;;;;1909806;74;21605;-80
2022/12/28 06:19:50;;;;;;;11.10;6.12;;;28.90;55.00;;;;;;1915927;73;21219;-78
2022/12/28 06:22:24;;;;;;;9.80;6.50;;;29.00;55.60;;;;;;1918071;73;21269;-77
2022/12/28 06:24:56;;;;;;;11.95;6.70;;;29.00;55.00;;;;;;1909916;73;21143;-77
2022/12/28 06:27:28;;;;;;;8.58;6.55;;;29.10;55.30;;;;;;1889612;74;21168;-76
2022/12/28 06:30:00;;;;;;;12.18;6.87;;;29.10;54.10;;;;;;1884705;74;21253;-78
2022/12/28 06:32:34;;;;;;;12.40;6.90;;;29.10;54.50;;;;;;1887165;74;21068;-81
2022/12/28 06:35:09;;;;;;;9.45;5.83;;;29.00;54.60;;;;;;1894625;74;21135;-80
2022/12/28 06:37:50;;;;;;;9.48;6.12;;;29.00;55.70;;;;;;1879594;74;21594;-78
2022/12/28 06:40:18;;;;;;;12.35;6.25;;;29.00;54.80;;;;;;1891873;74;21155;-77
2022/12/28 06:42:55;;;;;;;10.78;6.10;;;29.00;54.70;;;;;;1884554;74;21630;-76
2022/12/28 06:45:27;;;;;;;7.87;5.25;;;29.00;54.90;;;;;;1876465;74;21143;-79
2022/12/28 06:48:03;;;;;;;10.93;6.45;;;29.00;53.80;;;;;;1886944;74;21252;-78
2022/12/28 06:50:35;;;;;;;10.63;6.05;;;29.00;53.70;;;;;;1875334;75;21176;-78
2022/12/28 06:53:08;;;;;;;11.93;6.12;;;29.10;53.40;;;;;;1875982;75;21245;-83
2022/12/28 06:55:53;;;;;;;;;;;29.10;52.50;;;;;;1881779;74;21076;-81
2022/12/28 06:59:29;;;;;;;;;;;;;;;;;;;;;
2022/12/28 07:01:43;;;;;;;10.55;6.20;;;29.20;53.70;;;;;;1865739;74;21360;-78
2022/12/28 07:04:19;;;;;;;11.03;6.28;;;29.20;52.30;;;;;;1800477;78;21228;-78
2022/12/28 07:06:50;;;;;;;10.08;5.70;;;29.20;52.00;;;;;;1886972;74;21154;-81
2022/12/28 07:09:30;;;;;;;9.43;6.03;;;29.20;52.40;;;;;;1894070;74;21170;-79
2022/12/28 07:12:04;;;;;;;9.15;5.95;;;29.10;52.80;;;;;;1875526;74;21162;-78
2022/12/28 07:14:40;;;;;;;8.58;5.60;;;29.10;53.60;;;;;;1798639;77;21538;-80
2022/12/28 07:17:11;;;;;;;7.90;5.80;;;29.10;51.90;;;;;;1868032;75;21150;-80
2022/12/28 07:19:46;;;;;;;8.65;6.10;;;29.10;51.30;;;;;;1867871;75;21166;-79
2022/12/28 07:22:25;;;;;;;11.30;5.40;;;29.00;51.80;;;;;;1881938;74;21690;-81
2022/12/28 07:24:58;;;;;;;9.38;6.42;;;29.10;51.80;;;;;;1887315;73;21643;-80
2022/12/28 07:27:29;;;;;;;10.45;6.05;;;29.10;51.60;;;;;;1890147;74;21127;-78
2022/12/28 07:30:15;;;;;;;11.30;5.83;;;29.10;51.00;;;;;;1888223;74;21174;-78
2022/12/28 07:32:48;;;;;;;9.10;5.47;;;29.10;51.50;;;;;;1865303;75;21138;-90
2022/12/28 07:35:23;;;;;;;8.98;5.42;;;29.10;51.40;;;;;;1874960;75;21069;-87
2022/12/28 07:37:55;;;;;;;8.30;4.97;;;29.10;50.90;;;;;;1896879;75;21144;-88
2022/12/28 07:40:29;;;;;;;11.88;5.10;;;29.10;50.60;;;;;;1900703;75;21873;-88
2022/12/28 07:43:02;;;;;;;9.18;5.00;;;29.10;50.50;;;;;;1886771;75;21164;-91
2022/12/28 07:45:33;;;;;;;7.42;5.15;;;29.20;50.80;;;;;;1884665;75;21225;-90
2022/12/28 07:48:08;;;;;;;8.38;4.97;;;29.10;52.50;;;;;;1873173;75;21801;-90
2022/12/28 07:50:40;;;;;;;9.90;4.85;;;29.10;53.00;;;;;;1867842;75;21104;-89
2022/12/28 07:53:14;;;;;;;10.03;5.58;;;29.10;50.90;;;;;;1894668;75;21185;-88
2022/12/28 07:55:57;;;;;;;8.35;5.75;;;29.10;51.40;;;;;;1881483;75;21112;-90
2022/12/28 07:58:33;;;;;;;7.72;5.12;;;29.10;50.50;;;;;;1866419;75;21134;-87
2022/12/28 08:01:08;;;;;;;10.30;4.87;;;29.10;51.00;;;;;;1878633;75;21199;-90
2022/12/28 08:03:40;;;;;;;11.15;5.80;;;29.00;51.80;;;;;;1881539;75;21072;-88
2022/12/28 08:06:15;;;;;;;9.50;5.70;;;29.00;51.00;;;;;;1879104;75;21143;-89
2022/12/28 08:08:57;;;;;;;8.33;5.60;;;29.00;51.40;;;;;;1868038;75;21175;-90
2022/12/28 08:11:27;;;;;;;8.03;5.47;;;28.90;50.70;;;;;;1884995;75;21120;-89
2022/12/28 08:14:06;;;;;;;9.58;5.75;;;28.80;51.00;;;;;;1873960;75;21127;-87
2022/12/28 08:16:42;;;;;;;10.18;5.80;;;28.70;51.50;;;;;;1873172;75;21692;-87
2022/12/28 08:19:16;;;;;;;9.50;5.37;;;28.70;51.70;;;;;;1880006;75;21130;-88
2022/12/28 08:21:47;;;;;;;8.18;5.67;;;28.70;51.80;;;;;;1883396;75;21074;-89
2022/12/28 08:24:23;;;;;;;9.40;6.92;;;28.70;51.40;;;;;;1874902;75;21095;-86
2022/12/28 08:26:53;;;;;;;10.75;6.92;;;28.60;51.90;;;;;;1875104;76;21207;-88
2022/12/28 08:29:32;;;;;;;10.90;6.33;;;28.60;52.50;;;;;;1863425;76;21170;-87
2022/12/28 08:32:03;;;;;;;14.83;6.80;;;28.60;51.90;;;;;;1871174;76;21164;-85
2022/12/28 08:34:34;;;;;;;12.10;7.33;;;28.60;51.90;;;;;;1887917;76;21107;-87
2022/12/28 08:37:07;;;;;;;9.70;6.60;;;28.60;51.30;;;;;;1872325;76;21479;-87
2022/12/28 08:39:39;;;;;;;12.03;6.90;;;28.60;51.80;;;;;;1883029;76;21181;-89
2022/12/28 08:42:12;;;;;;;10.93;6.70;;;28.60;51.40;;;;;;1878416;76;21128;-88
2022/12/28 08:47:32;;;;;;;9.53;7.20;;;28.60;51.30;;;;;;1879455;75;21229;-91
2022/12/28 08:50:03;;;;;;;11.43;7.33;;;28.50;50.60;;;;;;1895360;75;21148;-89
2022/12/28 08:52:33;;;;;;;10.20;6.78;;;28.50;50.60;;;;;;1895632;76;21069;-89
2022/12/28 08:55:08;;;;;;;10.38;6.85;;;28.50;50.30;;;;;;1861679;77;21119;-89
2022/12/28 08:57:54;;;;;;;10.20;6.83;;;28.60;50.50;;;;;;1883552;76;21183;-90
2022/12/28 09:00:24;;;;;;;10.03;6.37;;;28.60;50.50;;;;;;1886814;76;21536;-90
2022/12/28 09:02:56;;;;;;;8.58;5.70;;;28.60;50.40;;;;;;1891829;76;21126;-91
2022/12/28 09:05:31;;;;;;;9.08;5.15;;;28.60;50.00;;;;;;1895516;74;21191;-88
2022/12/28 09:08:02;;;;;;;10.55;5.40;;;28.60;50.20;;;;;;1876081;75;21114;-89
2022/12/28 09:10:33;;;;;;;11.03;6.70;;;28.60;50.40;;;;;;1867523;76;21195;-90
2022/12/28 09:13:05;;;;;;;9.08;5.40;;;28.50;50.50;;;;;;1893300;75;21028;-91
2022/12/28 09:15:43;;;;;;;10.40;6.92;;;28.60;50.90;;;;;;1881679;76;21120;-89
2022/12/28 09:18:13;;;;;;;11.18;6.40;;;28.60;51.70;;;;;;1887534;76;21064;-78
2022/12/28 09:20:49;;;;;;;10.78;6.17;;;28.60;51.20;;;;;;1886394;75;21074;-79
2022/12/28 09:23:20;;;;;;;10.68;5.60;;;28.50;50.80;;;;;;1911508;73;21166;-76
2022/12/28 09:25:56;;;;;;;12.05;5.50;;;28.50;51.10;;;;;;1914853;73;21178;-78
2022/12/28 09:28:28;;;;;;;9.98;6.53;;;28.50;50.70;;;;;;1882827;73;21173;-81
2022/12/28 09:31:01;;;;;;;12.53;6.15;;;28.50;50.90;;;;;;1901844;74;21271;-76
2022/12/28 09:36:29;;;;;;;9.13;6.22;;;28.40;51.00;;;;;;1852623;76;21967;-77
2022/12/28 09:39:11;;;;;;;11.88;6.22;;;28.40;50.70;;;;;;1876687;74;21203;-77
2022/12/28 09:42:01;;;;;;;11.95;6.25;;;28.40;51.30;;;;;;1878782;74;21146;-77
2022/12/28 09:44:40;;;;;;;12.18;6.33;;;28.40;51.40;;;;;;1883199;74;21613;-80
2022/12/28 09:47:20;;;;;;;11.00;7.70;;;28.30;51.30;;;;;;1890438;74;21123;-81
2022/12/28 09:50:05;;;;;;;11.57;6.83;;;28.30;51.80;;;;;;1901876;73;21231;-83
2022/12/28 09:52:45;;;;;;;14.53;8.53;;;28.30;51.70;;;;;;1854966;76;21173;-79
2022/12/28 09:55:19;;;;;;;15.30;7.87;;;28.30;51.30;;;;;;1827567;77;21198;-78
2022/12/28 09:57:52;;;;;;;14.18;9.53;;;28.20;51.70;;;;;;1860615;76;21165;-82
2022/12/28 10:00:42;;;;;;;15.72;7.70;;;28.20;51.70;;;;;;1863339;76;21257;-79
2022/12/28 10:03:22;;;;;;;17.62;9.18;;;28.10;52.00;;;;;;1836837;76;21131;-78
2022/12/28 10:05:57;;;;;;;20.65;15.25;;;28.00;52.30;;;;;;1878332;74;21237;-78
2022/12/28 10:08:41;;;;;;;18.90;12.00;;;28.00;52.50;;;;;;1907651;73;21248;-80
2022/12/28 10:11:11;;;;;;;33.48;23.57;;;28.00;52.70;;;;;;1901436;73;21039;-83
2022/12/28 10:13:43;;;;;;;45.33;29.32;;;27.90;53.10;;;;;;1900175;74;21170;-80
2022/12/28 10:16:20;;;;;;;14.98;8.88;;;27.90;53.10;;;;;;1902699;74;21085;-80
2022/12/28 10:18:51;;;;;;;13.70;8.00;;;27.80;53.20;;;;;;1898559;74;21205;-84
2022/12/28 10:21:24;;;;;;;12.43;8.53;;;27.80;53.30;;;;;;1893449;74;21283;-84
2022/12/28 10:24:14;;;;;;;19.37;8.58;;;27.70;53.20;;;;;;1894165;74;21312;-83
2022/12/28 10:26:47;;;;;;;30.75;16.62;;;27.60;53.30;;;;;;1899637;73;21180;-85
2022/12/28 10:29:23;;;;;;;24.70;14.45;;;27.60;53.70;;;;;;1900814;73;21200;-84
2022/12/28 10:32:13;;;;;;;22.22;13.03;;;27.60;53.70;;;;;;1908475;73;21219;-84
2022/12/28 10:35:02;;;;;;;37.40;24.43;;;27.60;53.90;;;;;;1904883;73;21208;-83
2022/12/28 10:37:37;;;;;;;25.35;15.05;;;27.50;54.50;;;;;;1912531;73;21158;-79
2022/12/28 10:40:10;;;;;;;29.57;18.73;;;27.40;55.10;;;;;;1852710;76;21688;-84
2022/12/28 10:42:45;;;;;;;28.50;17.87;;;27.40;54.60;;;;;;1867995;75;21673;-80
2022/12/28 10:45:20;;;;;;;26.73;18.32;;;27.30;54.50;;;;;;1866638;75;21131;-83
2022/12/28 10:47:57;;;;;;;23.30;15.88;;;27.30;55.00;;;;;;1861281;75;21147;-83
2022/12/28 10:50:51;;;;;;;19.35;12.68;;;27.20;55.10;;;;;;1858180;76;21666;-79
2022/12/28 10:53:40;;;;;;;11.33;7.17;;;27.20;55.40;;;;;;1865045;75;21165;-81
2022/12/28 10:56:22;;;;;;;10.98;7.58;;;27.10;55.30;;;;;;1878937;74;21083;-79
2022/12/28 10:59:13;;;;;;;20.05;8.65;;;27.10;55.40;;;;;;1920225;73;21293;-85
2022/12/28 11:01:48;;;;;;;14.87;8.88;;;27.10;55.40;;;;;;1912940;74;21571;-90
2022/12/28 11:04:22;;;;;;;18.00;9.30;;;27.10;55.60;;;;;;1916493;73;21162;-83
2022/12/28 11:06:56;;;;;;;16.77;9.40;;;27.00;55.70;;;;;;1920352;73;21880;-88
2022/12/28 11:09:38;;;;;;;23.38;14.80;;;27.00;55.70;;;;;;1918621;73;21122;-88
2022/12/28 11:12:27;;;;;;;24.15;13.32;;;27.00;55.80;;;;;;1918486;74;21136;-89
2022/12/28 11:15:00;;;;;;;17.07;10.72;;;27.00;55.70;;;;;;1916360;73;21119;-89
2022/12/28 11:18:17;;;;;;;15.88;10.90;;;26.90;55.20;;;;;;1913189;73;21151;-86
2022/12/28 11:20:59;;;;;;;17.75;9.95;;;26.90;55.40;;;;;;1915606;73;21068;-90
2022/12/28 11:23:33;;;;;;;20.52;11.40;;;26.90;55.50;;;;;;1916946;73;21112;-89
2022/12/28 11:26:04;;;;;;;21.77;11.48;;;26.90;55.70;;;;;;1914588;75;21119;-90
2022/12/28 11:28:35;;;;;;;22.98;12.47;;;26.90;56.60;;;;;;1854902;77;21713;-89
2022/12/28 11:31:09;;;;;;;17.35;11.12;;;26.90;56.20;;;;;;1848452;77;21177;-89
2022/12/28 11:33:43;;;;;;;22.25;12.78;;;26.80;56.20;;;;;;1822812;78;21258;-91
2022/12/28 11:36:19;;;;;;;18.57;10.50;;;26.80;56.10;;;;;;1836377;77;21173;-91
2022/12/28 11:38:52;;;;;;;19.00;10.10;;;26.80;56.30;;;;;;1892323;75;21391;-91
2022/12/28 11:41:33;;;;;;;17.02;10.90;;;26.70;56.30;;;;;;1901848;75;21056;-89
2022/12/28 11:44:03;;;;;;;18.70;11.35;;;26.70;56.50;;;;;;1845551;77;21126;-89
2022/12/28 11:46:39;;;;;;;17.73;10.33;;;26.70;56.50;;;;;;1826385;77;21608;-87
2022/12/28 11:49:31;;;;;;;17.15;11.40;;;26.70;56.40;;;;;;1900316;75;21119;-88
2022/12/28 11:52:22;;;;;;;19.45;11.83;;;26.60;56.60;;;;;;1895046;75;21133;-89
2022/12/28 11:54:55;;;;;;;22.32;13.38;;;26.60;56.80;;;;;;1901697;75;21080;-90
2022/12/28 11:57:37;;;;;;;28.25;13.50;;;26.60;57.00;;;;;;1901005;75;21214;-89
2022/12/28 12:00:22;;;;;;;22.37;12.47;;;26.60;57.20;;;;;;1897751;75;21155;-90
2022/12/28 12:02:56;;;;;;;20.32;12.33;;;26.50;57.10;;;;;;1899117;75;21068;-89
2022/12/28 12:05:42;;;;;;;15.83;11.33;;;26.50;57.10;;;;;;1874363;75;21197;-88
2022/12/28 12:08:15;;;;;;;21.42;11.30;;;26.50;57.30;;;;;;1890046;75;21126;-88
2022/12/28 12:10:48;;;;;;;27.50;12.10;;;26.40;57.50;;;;;;1895352;75;21117;-88
2022/12/28 12:13:30;;;;;;;18.57;11.30;;;26.40;57.70;;;;;;1900323;75;21173;-88
2022/12/28 12:16:07;;;;;;;21.75;11.90;;;26.30;57.80;;;;;;1903625;75;21045;-88
2022/12/28 12:18:53;;;;;;;23.10;12.20;;;26.30;57.80;;;;;;1885388;75;21079;-87
2022/12/28 12:21:38;;;;;;;21.57;13.62;;;26.30;58.00;;;;;;1881206;75;21127;-87
2022/12/28 12:24:25;;;;;;;20.17;12.60;;;26.30;58.00;;;;;;1887722;75;21712;-88
2022/12/28 12:26:59;;;;;;;21.27;13.98;;;26.30;58.00;;;;;;1857621;74;21127;-88
2022/12/28 12:29:43;;;;;;;21.60;14.38;;;26.30;58.00;;;;;;1865775;76;21198;-85
2022/12/28 12:32:18;;;;;;;26.65;14.25;;;26.30;58.10;;;;;;1894235;76;21174;-88
2022/12/28 12:34:56;;;;;;;23.85;13.65;;;26.30;58.00;;;;;;1894029;76;21162;-87
2022/12/28 12:38:04;;;;;;;25.17;14.35;;;26.30;58.10;;;;;;1895013;76;21120;-85
2022/12/28 12:40:46;;;;;;;26.10;14.55;;;26.30;58.20;;;;;;1872178;76;21082;-87
2022/12/28 12:43:32;;;;;;;27.87;15.68;;;26.30;58.40;;;;;;1923727;75;21154;-88
2022/12/28 12:46:34;;;;;;;28.30;15.28;;;26.30;58.30;;;;;;1860337;76;21242;-87
2022/12/28 12:49:23;;;;;;;26.97;15.20;;;26.30;58.40;;;;;;1889837;75;21521;-87
2022/12/28 12:52:02;;;;;;;28.27;15.35;;;26.30;58.40;;;;;;1895647;75;21130;-87
2022/12/28 12:54:58;;;;;;;22.85;14.43;;;26.30;58.10;;;;;;1893492;76;21190;-87
2022/12/28 12:57:43;;;;;;;21.93;13.60;;;26.30;58.00;;;;;;1878800;76;21087;-87
2022/12/28 13:00:23;;;;;;;21.77;13.40;;;26.30;58.00;;;;;;1881861;76;21073;-86
2022/12/28 13:03:20;;;;;;;22.55;12.65;;;26.30;57.90;;;;;;1891202;75;21154;-86
2022/12/28 13:05:53;;;;;;;22.80;13.22;;;26.30;57.80;;;;;;1893805;76;21089;-87
2022/12/28 13:08:29;;;;;;;25.08;13.60;;;26.30;57.70;;;;;;1893894;76;21118;-86
2022/12/28 13:11:01;;;;;;;21.77;13.20;;;26.30;57.60;;;;;;1894026;75;21103;-87
2022/12/28 13:13:35;;;;;;;22.48;14.05;;;26.30;57.70;;;;;;1808536;78;21102;-89
2022/12/28 13:16:14;;;;;;;22.05;12.90;;;26.30;57.80;;;;;;1901032;75;21605;-87
2022/12/28 13:18:59;;;;;;;24.35;13.55;;;26.30;58.00;;;;;;1899544;73;21078;-87
2022/12/28 13:21:44;;;;;;;24.90;13.85;;;26.30;58.20;;;;;;1884012;76;21097;-87
2022/12/28 13:24:29;;;;;;;24.02;14.53;;;26.20;58.30;;;;;;1897581;73;21154;-87
2022/12/28 13:27:02;;;;;;;25.08;14.60;;;26.20;58.30;;;;;;1924573;73;21104;-86
2022/12/28 13:29:36;;;;;;;25.88;15.28;;;26.20;58.50;;;;;;1921262;73;21064;-86
2022/12/28 13:32:24;;;;;;;24.47;15.05;;;26.10;58.60;;;;;;1857968;76;21135;-86
2022/12/28 13:35:01;;;;;;;25.10;14.85;;;26.10;58.70;;;;;;1913862;75;21131;-87
2022/12/28 13:37:36;;;;;;;23.87;14.23;;;26.10;58.80;;;;;;1922205;73;21190;-87
2022/12/28 13:40:14;;;;;;;35.45;21.07;;;26.00;59.70;;;;;;1860698;76;21194;-87
2022/12/28 13:43:07;;;;;;;35.80;23.77;;;26.00;59.00;;;;;;1891434;75;21129;-88
2022/12/28 13:45:38;;;;;;;37.95;24.00;;;26.00;59.10;;;;;;1916809;75;21214;-87
2022/12/28 13:48:09;;;;;;;38.30;24.67;;;25.90;59.00;;;;;;1910247;75;21643;-86
2022/12/28 13:50:41;;;;;;;36.65;21.27;;;25.90;59.10;;;;;;1913443;75;21122;-87
2022/12/28 13:53:20;;;;;;;33.28;17.02;;;25.90;59.10;;;;;;1915178;75;21079;-88
2022/12/28 13:55:53;;;;;;;32.80;15.10;;;25.90;59.20;;;;;;1876607;75;21596;-86